sensor_id;sensor_type;location;lat;lon;timestamp;pressure;altitude;pressure_sealevel;temperature;humidity
24858;BME280;12935;50.782;6.074;2023-03-13T00:01:25;98371.06;;;11.12;100.00
24858;BME280;12935;50.782;6.074;2023-03-13T00:03:51;98349.94;;;11.13;100.00
24858;BME280;12935;50.782;6.074;2023-03-13T00:06:17;98341.75;;;11.13;100.00
24858;BME280;12935;50.782;6.074;2023-03-13T00:08:43;98338.03;;;11.03;100.00
24858;BME280;12935;50.782;6.074;2023-03-13T00:11:13;98329.66;;;10.94;100.00
24858;BME280;12935;50.782;6.074;2023-03-13T00:13:39;98321.22;;;11.05;100.00
24858;BME280;12935;50.782;6.074;2023-03-13T00:16:15;98320.97;;;10.99;100.00
24858;BME280;12935;50.782;6.074;2023-03-13T00:18:47;98319.25;;;11.05;100.00
24858;BME280;12935;50.782;6.074;2023-03-13T00:21:16;98310.84;;;10.80;100.00
24858;BME280;12935;50.782;6.074;2023-03-13T00:23:42;98297.38;;;10.89;100.00
24858;BME280;12935;50.782;6.074;2023-03-13T00:26:11;98301.91;;;10.96;100.00
24858;BME280;12935;50.782;6.074;2023-03-13T00:28:37;98302.69;;;10.96;100.00
24858;BME280;12935;50.782;6.074;2023-03-13T00:31:11;98306.69;;;10.92;100.00
24858;BME280;12935;50.782;6.074;2023-03-13T00:33:39;98297.69;;;10.75;100.00
24858;BME280;12935;50.782;6.074;2023-03-13T00:36:08;98295.50;;;10.86;100.00
24858;BME280;12935;50.782;6.074;2023-03-13T00:38:34;98282.69;;;10.83;100.00
24858;BME280;12935;50.782;6.074;2023-03-13T00:41:20;98281.66;;;10.77;100.00
24858;BME280;12935;50.782;6.074;2023-03-13T00:43:46;98269.09;;;10.79;100.00
24858;BME280;12935;50.782;6.074;2023-03-13T00:46:14;98281.41;;;10.87;100.00
24858;BME280;12935;50.782;6.074;2023-03-13T00:48:40;98267.59;;;10.95;100.00
24858;BME280;12935;50.782;6.074;2023-03-13T00:51:06;98273.75;;;10.99;100.00
24858;BME280;12935;50.782;6.074;2023-03-13T00:53:32;98265.13;;;11.00;100.00
24858;BME280;12935;50.782;6.074;2023-03-13T00:56:00;98255.03;;;10.97;100.00
24858;BME280;12935;50.782;6.074;2023-03-13T00:58:28;98253.50;;;10.96;100.00
24858;BME280;12935;50.782;6.074;2023-03-13T01:00:54;98257.75;;;10.97;100.00
24858;BME280;12935;50.782;6.074;2023-03-13T01:03:23;98236.75;;;10.94;100.00
24858;BME280;12935;50.782;6.074;2023-03-13T01:06:00;98246.50;;;10.95;100.00
24858;BME280;12935;50.782;6.074;2023-03-13T01:08:27;98237.09;;;10.96;100.00
24858;BME280;12935;50.782;6.074;2023-03-13T01:11:01;98232.22;;;11.04;100.00
24858;BME280;12935;50.782;6.074;2023-03-13T01:13:28;98229.41;;;11.07;100.00
24858;BME280;12935;50.782;6.074;2023-03-13T01:15:54;98223.34;;;11.16;100.00
24858;BME280;12935;50.782;6.074;2023-03-13T01:18:26;98214.53;;;11.24;100.00
24858;BME280;12935;50.782;6.074;2023-03-13T01:20:52;98220.84;;;11.21;100.00
24858;BME280;12935;50.782;6.074;2023-03-13T01:23:17;98215.94;;;11.00;100.00
24858;BME280;12935;50.782;6.074;2023-03-13T01:25:43;98216.09;;;10.93;100.00
24858;BME280;12935;50.782;6.074;2023-03-13T01:28:09;98210.63;;;10.93;100.00
24858;BME280;12935;50.782;6.074;2023-03-13T01:30:35;98207.72;;;11.00;100.00
24858;BME280;12935;50.782;6.074;2023-03-13T01:33:01;98204.72;;;10.95;100.00
24858;BME280;12935;50.782;6.074;2023-03-13T01:35:26;98209.06;;;10.92;100.00
24858;BME280;12935;50.782;6.074;2023-03-13T01:37:52;98198.00;;;10.99;100.00
24858;BME280;12935;50.782;6.074;2023-03-13T01:40:17;98199.84;;;11.02;100.00
24858;BME280;12935;50.782;6.074;2023-03-13T01:42:55;98194.91;;;10.97;100.00
24858;BME280;12935;50.782;6.074;2023-03-13T01:45:57;98197.47;;;10.88;100.00
24858;BME280;12935;50.782;6.074;2023-03-13T01:51:09;98160.31;;;11.07;100.00
24858;BME280;12935;50.782;6.074;2023-03-13T01:53:39;98163.81;;;11.07;100.00
24858;BME280;12935;50.782;6.074;2023-03-13T01:56:13;98167.94;;;10.99;100.00
24858;BME280;12935;50.782;6.074;2023-03-13T01:58:41;98172.09;;;11.04;100.00
24858;BME280;12935;50.782;6.074;2023-03-13T02:01:08;98159.53;;;11.06;100.00
24858;BME280;12935;50.782;6.074;2023-03-13T02:03:35;98149.81;;;10.89;100.00
24858;BME280;12935;50.782;6.074;2023-03-13T02:06:02;98161.69;;;10.66;100.00
24858;BME280;12935;50.782;6.074;2023-03-13T02:08:49;98142.66;;;10.79;100.00
24858;BME280;12935;50.782;6.074;2023-03-13T02:11:30;98152.81;;;10.95;100.00
24858;BME280;12935;50.782;6.074;2023-03-13T02:14:01;98138.03;;;10.92;100.00
24858;BME280;12935;50.782;6.074;2023-03-13T02:16:27;98135.16;;;10.83;100.00
24858;BME280;12935;50.782;6.074;2023-03-13T02:18:53;98145.47;;;10.75;100.00
24858;BME280;12935;50.782;6.074;2023-03-13T02:21:30;98149.16;;;10.69;100.00
24858;BME280;12935;50.782;6.074;2023-03-13T02:24:19;98140.78;;;10.76;100.00
24858;BME280;12935;50.782;6.074;2023-03-13T02:26:45;98143.00;;;10.81;100.00
24858;BME280;12935;50.782;6.074;2023-03-13T02:29:11;98128.50;;;10.68;100.00
24858;BME280;12935;50.782;6.074;2023-03-13T02:31:46;98118.34;;;10.68;100.00
24858;BME280;12935;50.782;6.074;2023-03-13T02:34:14;98116.09;;;10.79;100.00
24858;BME280;12935;50.782;6.074;2023-03-13T02:36:43;98101.00;;;10.75;100.00
24858;BME280;12935;50.782;6.074;2023-03-13T02:39:11;98113.88;;;10.90;100.00
24858;BME280;12935;50.782;6.074;2023-03-13T02:41:39;98100.53;;;10.93;100.00
24858;BME280;12935;50.782;6.074;2023-03-13T02:44:06;98109.16;;;10.91;100.00
24858;BME280;12935;50.782;6.074;2023-03-13T02:46:45;98084.66;;;10.87;100.00
24858;BME280;12935;50.782;6.074;2023-03-13T02:49:28;98073.56;;;10.95;100.00
24858;BME280;12935;50.782;6.074;2023-03-13T02:51:56;98066.56;;;10.94;100.00
24858;BME280;12935;50.782;6.074;2023-03-13T02:54:30;98058.19;;;11.01;100.00
24858;BME280;12935;50.782;6.074;2023-03-13T02:57:00;98060.72;;;11.08;100.00
24858;BME280;12935;50.782;6.074;2023-03-13T02:59:26;98071.28;;;11.06;100.00
24858;BME280;12935;50.782;6.074;2023-03-13T03:01:52;98051.66;;;11.11;100.00
24858;BME280;12935;50.782;6.074;2023-03-13T03:04:20;98068.94;;;11.20;100.00
24858;BME280;12935;50.782;6.074;2023-03-13T03:06:46;98066.38;;;11.30;100.00
24858;BME280;12935;50.782;6.074;2023-03-13T03:09:11;98072.34;;;11.24;100.00
24858;BME280;12935;50.782;6.074;2023-03-13T03:11:37;98059.84;;;11.11;100.00
24858;BME280;12935;50.782;6.074;2023-03-13T03:14:03;98039.94;;;11.10;100.00
24858;BME280;12935;50.782;6.074;2023-03-13T03:16:29;98068.03;;;11.11;100.00
24858;BME280;12935;50.782;6.074;2023-03-13T03:18:57;98072.75;;;11.10;100.00
24858;BME280;12935;50.782;6.074;2023-03-13T03:21:23;98057.38;;;11.16;100.00
24858;BME280;12935;50.782;6.074;2023-03-13T03:23:49;98049.59;;;11.15;100.00
24858;BME280;12935;50.782;6.074;2023-03-13T03:26:15;98070.06;;;11.23;100.00
24858;BME280;12935;50.782;6.074;2023-03-13T03:28:41;98062.78;;;11.33;100.00
24858;BME280;12935;50.782;6.074;2023-03-13T03:31:09;98033.34;;;11.37;100.00
24858;BME280;12935;50.782;6.074;2023-03-13T03:33:35;98034.44;;;11.39;100.00
24858;BME280;12935;50.782;6.074;2023-03-13T03:36:03;98029.31;;;11.41;100.00
24858;BME280;12935;50.782;6.074;2023-03-13T03:38:29;98029.88;;;11.49;100.00
24858;BME280;12935;50.782;6.074;2023-03-13T03:40:54;98025.28;;;11.46;100.00
24858;BME280;12935;50.782;6.074;2023-03-13T03:43:20;98012.72;;;11.48;100.00
24858;BME280;12935;50.782;6.074;2023-03-13T03:45:46;98020.78;;;11.52;100.00
24858;BME280;12935;50.782;6.074;2023-03-13T03:48:12;98022.41;;;11.49;100.00
24858;BME280;12935;50.782;6.074;2023-03-13T03:50:37;98027.00;;;11.40;100.00
24858;BME280;12935;50.782;6.074;2023-03-13T03:53:02;98029.88;;;11.49;100.00
24858;BME280;12935;50.782;6.074;2023-03-13T03:55:28;98002.22;;;11.59;100.00
24858;BME280;12935;50.782;6.074;2023-03-13T03:57:53;98018.38;;;11.67;100.00
24858;BME280;12935;50.782;6.074;2023-03-13T04:00:18;98028.47;;;11.70;100.00
24858;BME280;12935;50.782;6.074;2023-03-13T04:02:44;98022.31;;;11.66;100.00
24858;BME280;12935;50.782;6.074;2023-03-13T04:05:10;98039.84;;;11.68;100.00
24858;BME280;12935;50.782;6.074;2023-03-13T04:07:35;98043.69;;;11.71;100.00
24858;BME280;12935;50.782;6.074;2023-03-13T04:10:01;98042.91;;;11.70;100.00
24858;BME280;12935;50.782;6.074;2023-03-13T04:12:26;98047.09;;;11.75;100.00
24858;BME280;12935;50.782;6.074;2023-03-13T04:14:52;98036.69;;;11.70;100.00
24858;BME280;12935;50.782;6.074;2023-03-13T04:17:17;98057.63;;;11.76;100.00
24858;BME280;12935;50.782;6.074;2023-03-13T04:19:42;98040.66;;;11.81;100.00
24858;BME280;12935;50.782;6.074;2023-03-13T04:22:08;98043.50;;;11.90;100.00
24858;BME280;12935;50.782;6.074;2023-03-13T04:24:33;98042.31;;;11.91;100.00
24858;BME280;12935;50.782;6.074;2023-03-13T04:26:59;98020.41;;;11.91;100.00
24858;BME280;12935;50.782;6.074;2023-03-13T04:29:24;98041.22;;;11.89;100.00
24858;BME280;12935;50.782;6.074;2023-03-13T04:31:50;98030.25;;;11.89;100.00
24858;BME280;12935;50.782;6.074;2023-03-13T04:34:15;98019.84;;;11.97;100.00
24858;BME280;12935;50.782;6.074;2023-03-13T04:36:40;98014.19;;;11.91;100.00
24858;BME280;12935;50.782;6.074;2023-03-13T04:39:05;98018.63;;;11.98;100.00
24858;BME280;12935;50.782;6.074;2023-03-13T04:41:31;98026.53;;;12.08;100.00
24858;BME280;12935;50.782;6.074;2023-03-13T04:43:56;98006.72;;;12.04;100.00
24858;BME280;12935;50.782;6.074;2023-03-13T04:46:22;98007.41;;;11.96;100.00
24858;BME280;12935;50.782;6.074;2023-03-13T04:48:47;97997.19;;;12.09;100.00
24858;BME280;12935;50.782;6.074;2023-03-13T04:51:13;97987.56;;;12.04;100.00
24858;BME280;12935;50.782;6.074;2023-03-13T04:53:38;98004.31;;;12.06;100.00
24858;BME280;12935;50.782;6.074;2023-03-13T04:56:04;97988.94;;;12.21;100.00
24858;BME280;12935;50.782;6.074;2023-03-13T04:58:30;97973.50;;;12.15;100.00
24858;BME280;12935;50.782;6.074;2023-03-13T05:00:55;97969.78;;;12.21;100.00
24858;BME280;12935;50.782;6.074;2023-03-13T05:03:22;97973.63;;;12.24;100.00
24858;BME280;12935;50.782;6.074;2023-03-13T05:05:48;97976.78;;;12.22;100.00
24858;BME280;12935;50.782;6.074;2023-03-13T05:08:14;97947.00;;;12.24;100.00
24858;BME280;12935;50.782;6.074;2023-03-13T05:10:42;97957.06;;;12.27;100.00
24858;BME280;12935;50.782;6.074;2023-03-13T05:13:08;97948.72;;;12.31;100.00
24858;BME280;12935;50.782;6.074;2023-03-13T05:15:34;97950.56;;;12.34;100.00
24858;BME280;12935;50.782;6.074;2023-03-13T05:18:00;97932.97;;;12.22;100.00
24858;BME280;12935;50.782;6.074;2023-03-13T05:20:26;97912.28;;;12.21;100.00
24858;BME280;12935;50.782;6.074;2023-03-13T05:22:51;97916.44;;;12.26;100.00
24858;BME280;12935;50.782;6.074;2023-03-13T05:25:17;97915.47;;;12.20;100.00
24858;BME280;12935;50.782;6.074;2023-03-13T05:27:46;97906.38;;;12.23;100.00
24858;BME280;12935;50.782;6.074;2023-03-13T05:30:12;97911.72;;;12.26;100.00
24858;BME280;12935;50.782;6.074;2023-03-13T05:32:38;97925.09;;;12.24;100.00
24858;BME280;12935;50.782;6.074;2023-03-13T05:35:04;97917.50;;;12.28;100.00
24858;BME280;12935;50.782;6.074;2023-03-13T05:37:29;97946.97;;;12.37;100.00
24858;BME280;12935;50.782;6.074;2023-03-13T05:39:55;97937.22;;;12.36;100.00
24858;BME280;12935;50.782;6.074;2023-03-13T05:42:20;97919.63;;;12.46;100.00
24858;BME280;12935;50.782;6.074;2023-03-13T05:44:46;97948.88;;;12.49;100.00
24858;BME280;12935;50.782;6.074;2023-03-13T05:47:11;97947.22;;;12.52;100.00
24858;BME280;12935;50.782;6.074;2023-03-13T05:49:37;97939.25;;;12.45;100.00
24858;BME280;12935;50.782;6.074;2023-03-13T05:52:03;97964.38;;;12.43;100.00
24858;BME280;12935;50.782;6.074;2023-03-13T05:54:29;97949.13;;;12.42;100.00
24858;BME280;12935;50.782;6.074;2023-03-13T05:56:57;97956.00;;;12.47;100.00
24858;BME280;12935;50.782;6.074;2023-03-13T05:59:23;97964.22;;;12.47;100.00
24858;BME280;12935;50.782;6.074;2023-03-13T06:01:48;97942.19;;;12.50;100.00
24858;BME280;12935;50.782;6.074;2023-03-13T06:04:14;97956.44;;;12.58;100.00
24858;BME280;12935;50.782;6.074;2023-03-13T06:06:39;97960.06;;;12.55;100.00
24858;BME280;12935;50.782;6.074;2023-03-13T06:09:05;97959.34;;;12.63;100.00
24858;BME280;12935;50.782;6.074;2023-03-13T06:11:31;97962.66;;;12.58;100.00
24858;BME280;12935;50.782;6.074;2023-03-13T06:13:56;97969.59;;;12.50;100.00
24858;BME280;12935;50.782;6.074;2023-03-13T06:16:22;97958.63;;;12.50;100.00
24858;BME280;12935;50.782;6.074;2023-03-13T06:18:48;97949.09;;;12.55;100.00
24858;BME280;12935;50.782;6.074;2023-03-13T06:21:13;97965.59;;;12.64;100.00
24858;BME280;12935;50.782;6.074;2023-03-13T06:23:39;97951.84;;;12.55;100.00
24858;BME280;12935;50.782;6.074;2023-03-13T06:26:06;97967.50;;;12.54;100.00
24858;BME280;12935;50.782;6.074;2023-03-13T06:28:32;97963.22;;;12.53;100.00
24858;BME280;12935;50.782;6.074;2023-03-13T06:31:02;97961.38;;;12.50;100.00
24858;BME280;12935;50.782;6.074;2023-03-13T06:33:27;97960.06;;;12.55;100.00
24858;BME280;12935;50.782;6.074;2023-03-13T06:35:53;97958.03;;;12.68;100.00
24858;BME280;12935;50.782;6.074;2023-03-13T06:38:18;97966.34;;;12.64;100.00
24858;BME280;12935;50.782;6.074;2023-03-13T06:40:44;97970.63;;;12.65;100.00
24858;BME280;12935;50.782;6.074;2023-03-13T06:43:09;97963.19;;;12.66;100.00
24858;BME280;12935;50.782;6.074;2023-03-13T06:45:35;97979.63;;;12.66;100.00
24858;BME280;12935;50.782;6.074;2023-03-13T06:48:01;98002.53;;;12.59;100.00
24858;BME280;12935;50.782;6.074;2023-03-13T06:50:27;97984.00;;;12.63;100.00
24858;BME280;12935;50.782;6.074;2023-03-13T06:52:52;97979.41;;;12.60;100.00
24858;BME280;12935;50.782;6.074;2023-03-13T06:55:17;97987.63;;;12.60;100.00
24858;BME280;12935;50.782;6.074;2023-03-13T06:57:43;97976.81;;;12.57;100.00
24858;BME280;12935;50.782;6.074;2023-03-13T07:00:10;97975.44;;;12.74;100.00
24858;BME280;12935;50.782;6.074;2023-03-13T07:02:39;97966.88;;;12.72;100.00
24858;BME280;12935;50.782;6.074;2023-03-13T07:05:04;97974.66;;;12.74;100.00
24858;BME280;12935;50.782;6.074;2023-03-13T07:07:31;97955.41;;;12.86;100.00
24858;BME280;12935;50.782;6.074;2023-03-13T07:09:58;97957.28;;;12.89;100.00
24858;BME280;12935;50.782;6.074;2023-03-13T07:12:23;97953.69;;;13.02;100.00
24858;BME280;12935;50.782;6.074;2023-03-13T07:14:49;97936.91;;;12.99;100.00
24858;BME280;12935;50.782;6.074;2023-03-13T07:17:14;97946.28;;;13.11;100.00
24858;BME280;12935;50.782;6.074;2023-03-13T07:19:40;97937.94;;;13.15;100.00
24858;BME280;12935;50.782;6.074;2023-03-13T07:22:06;97934.53;;;13.11;100.00
24858;BME280;12935;50.782;6.074;2023-03-13T07:24:31;97943.75;;;13.17;100.00
24858;BME280;12935;50.782;6.074;2023-03-13T07:26:57;97941.19;;;13.22;100.00
24858;BME280;12935;50.782;6.074;2023-03-13T07:29:23;97940.56;;;13.18;100.00
24858;BME280;12935;50.782;6.074;2023-03-13T07:31:49;97953.22;;;13.25;100.00
24858;BME280;12935;50.782;6.074;2023-03-13T07:34:15;97930.81;;;13.17;100.00
24858;BME280;12935;50.782;6.074;2023-03-13T07:36:41;97938.06;;;13.11;100.00
24858;BME280;12935;50.782;6.074;2023-03-13T07:39:07;97946.88;;;13.06;100.00
24858;BME280;12935;50.782;6.074;2023-03-13T07:41:33;97940.25;;;13.16;100.00
24858;BME280;12935;50.782;6.074;2023-03-13T07:43:58;97948.34;;;13.20;100.00
24858;BME280;12935;50.782;6.074;2023-03-13T07:46:24;97937.69;;;13.22;100.00
24858;BME280;12935;50.782;6.074;2023-03-13T07:48:49;97939.13;;;13.14;100.00
24858;BME280;12935;50.782;6.074;2023-03-13T07:51:20;97945.72;;;13.16;100.00
24858;BME280;12935;50.782;6.074;2023-03-13T07:53:46;97946.72;;;13.10;100.00
24858;BME280;12935;50.782;6.074;2023-03-13T07:56:14;97959.91;;;13.15;100.00
24858;BME280;12935;50.782;6.074;2023-03-13T07:58:41;97959.00;;;13.18;100.00
24858;BME280;12935;50.782;6.074;2023-03-13T08:01:12;97952.09;;;13.13;100.00
24858;BME280;12935;50.782;6.074;2023-03-13T08:03:39;97947.16;;;13.08;100.00
24858;BME280;12935;50.782;6.074;2023-03-13T08:06:07;97953.81;;;12.98;100.00
24858;BME280;12935;50.782;6.074;2023-03-13T08:08:33;97958.09;;;12.99;100.00
24858;BME280;12935;50.782;6.074;2023-03-13T08:11:05;97959.00;;;12.74;100.00
24858;BME280;12935;50.782;6.074;2023-03-13T08:13:32;97959.13;;;12.71;100.00
24858;BME280;12935;50.782;6.074;2023-03-13T08:18:36;97951.00;;;12.67;100.00
24858;BME280;12935;50.782;6.074;2023-03-13T08:21:07;97954.72;;;12.73;100.00
24858;BME280;12935;50.782;6.074;2023-03-13T08:23:33;97966.19;;;12.59;100.00
24858;BME280;12935;50.782;6.074;2023-03-13T08:26:12;97945.81;;;12.47;100.00
24858;BME280;12935;50.782;6.074;2023-03-13T08:28:39;97953.22;;;12.59;100.00
24858;BME280;12935;50.782;6.074;2023-03-13T08:31:54;97947.75;;;12.59;100.00
24858;BME280;12935;50.782;6.074;2023-03-13T08:34:01;97940.53;;;12.53;100.00
24858;BME280;12935;50.782;6.074;2023-03-13T08:36:29;97934.41;;;12.49;100.00
24858;BME280;12935;50.782;6.074;2023-03-13T08:38:58;97928.81;;;12.52;100.00
24858;BME280;12935;50.782;6.074;2023-03-13T08:41:26;97920.53;;;12.65;100.00
24858;BME280;12935;50.782;6.074;2023-03-13T08:43:53;97935.00;;;12.65;100.00
24858;BME280;12935;50.782;6.074;2023-03-13T08:46:19;97920.47;;;12.78;100.00
24858;BME280;12935;50.782;6.074;2023-03-13T08:48:48;97928.53;;;12.72;100.00
24858;BME280;12935;50.782;6.074;2023-03-13T08:51:14;97949.94;;;12.86;100.00
24858;BME280;12935;50.782;6.074;2023-03-13T08:53:41;97938.53;;;12.88;100.00
24858;BME280;12935;50.782;6.074;2023-03-13T08:56:09;97930.34;;;12.75;100.00
24858;BME280;12935;50.782;6.074;2023-03-13T08:58:35;97941.06;;;12.82;100.00
24858;BME280;12935;50.782;6.074;2023-03-13T09:01:06;97944.34;;;12.90;100.00
24858;BME280;12935;50.782;6.074;2023-03-13T09:03:32;97951.53;;;12.75;100.00
24858;BME280;12935;50.782;6.074;2023-03-13T09:05:58;97939.41;;;12.85;100.00
24858;BME280;12935;50.782;6.074;2023-03-13T09:08:25;97928.19;;;12.92;100.00
24858;BME280;12935;50.782;6.074;2023-03-13T09:10:59;97932.03;;;13.16;100.00
24858;BME280;12935;50.782;6.074;2023-03-13T09:13:26;97924.78;;;13.31;100.00
24858;BME280;12935;50.782;6.074;2023-03-13T09:16:00;97927.44;;;13.44;100.00
24858;BME280;12935;50.782;6.074;2023-03-13T09:18:27;97941.00;;;13.48;100.00
24858;BME280;12935;50.782;6.074;2023-03-13T09:20:52;97944.19;;;13.37;100.00
24858;BME280;12935;50.782;6.074;2023-03-13T09:23:19;97929.59;;;13.49;100.00
24858;BME280;12935;50.782;6.074;2023-03-13T09:25:44;97925.75;;;13.38;100.00
24858;BME280;12935;50.782;6.074;2023-03-13T09:28:10;97932.47;;;13.46;100.00
24858;BME280;12935;50.782;6.074;2023-03-13T09:30:35;97929.91;;;13.51;100.00
24858;BME280;12935;50.782;6.074;2023-03-13T09:33:01;97919.84;;;13.57;100.00
24858;BME280;12935;50.782;6.074;2023-03-13T09:35:26;97933.22;;;13.37;100.00
24858;BME280;12935;50.782;6.074;2023-03-13T09:37:51;97913.72;;;13.44;100.00
24858;BME280;12935;50.782;6.074;2023-03-13T09:40:20;97919.91;;;13.66;100.00
24858;BME280;12935;50.782;6.074;2023-03-13T09:42:52;97906.94;;;13.67;100.00
24858;BME280;12935;50.782;6.074;2023-03-13T09:45:31;97899.88;;;13.57;100.00
24858;BME280;12935;50.782;6.074;2023-03-13T09:48:07;97911.66;;;13.66;100.00
24858;BME280;12935;50.782;6.074;2023-03-13T09:50:41;97894.78;;;13.86;100.00
24858;BME280;12935;50.782;6.074;2023-03-13T09:53:19;97892.09;;;14.32;100.00
24858;BME280;12935;50.782;6.074;2023-03-13T09:55:50;97891.78;;;14.30;100.00
24858;BME280;12935;50.782;6.074;2023-03-13T09:58:19;97895.13;;;14.34;100.00
24858;BME280;12935;50.782;6.074;2023-03-13T10:00:52;97899.09;;;14.15;100.00
24858;BME280;12935;50.782;6.074;2023-03-13T10:03:29;97910.25;;;14.38;100.00
24858;BME280;12935;50.782;6.074;2023-03-13T10:06:09;97898.34;;;14.32;100.00
24858;BME280;12935;50.782;6.074;2023-03-13T10:08:36;97910.72;;;14.37;100.00
24858;BME280;12935;50.782;6.074;2023-03-13T10:16:24;97881.09;;;14.68;100.00
24858;BME280;12935;50.782;6.074;2023-03-13T10:18:56;97895.47;;;14.72;100.00
24858;BME280;12935;50.782;6.074;2023-03-13T10:21:25;97886.94;;;14.61;100.00
24858;BME280;12935;50.782;6.074;2023-03-13T10:26:28;97891.34;;;14.77;100.00
24858;BME280;12935;50.782;6.074;2023-03-13T10:28:55;97889.63;;;14.80;100.00
24858;BME280;12935;50.782;6.074;2023-03-13T10:31:33;97884.75;;;14.84;100.00
24858;BME280;12935;50.782;6.074;2023-03-13T10:34:12;97868.28;;;14.74;100.00
24858;BME280;12935;50.782;6.074;2023-03-13T10:36:46;97876.97;;;14.73;100.00
24858;BME280;12935;50.782;6.074;2023-03-13T10:39:15;97873.94;;;14.62;100.00
24858;BME280;12935;50.782;6.074;2023-03-13T10:41:41;97885.38;;;14.24;100.00
24858;BME280;12935;50.782;6.074;2023-03-13T10:44:18;97867.38;;;14.50;100.00
24858;BME280;12935;50.782;6.074;2023-03-13T10:46:46;97866.91;;;14.61;100.00
24858;BME280;12935;50.782;6.074;2023-03-13T10:49:19;97868.91;;;14.42;100.00
24858;BME280;12935;50.782;6.074;2023-03-13T10:51:53;97864.91;;;14.34;100.00
24858;BME280;12935;50.782;6.074;2023-03-13T10:54:28;97871.16;;;14.34;100.00
24858;BME280;12935;50.782;6.074;2023-03-13T10:59:45;97861.84;;;14.04;100.00
24858;BME280;12935;50.782;6.074;2023-03-13T11:02:21;97856.97;;;14.18;100.00
24858;BME280;12935;50.782;6.074;2023-03-13T11:04:47;97856.53;;;14.37;100.00
24858;BME280;12935;50.782;6.074;2023-03-13T11:07:33;97848.13;;;14.50;100.00
24858;BME280;12935;50.782;6.074;2023-03-13T11:10:15;97838.91;;;14.90;100.00
24858;BME280;12935;50.782;6.074;2023-03-13T11:12:50;97823.84;;;14.39;100.00
24858;BME280;12935;50.782;6.074;2023-03-13T11:15:19;97830.44;;;14.24;100.00
24858;BME280;12935;50.782;6.074;2023-03-13T11:17:54;97824.47;;;14.34;100.00
24858;BME280;12935;50.782;6.074;2023-03-13T11:20:27;97813.03;;;14.96;100.00
24858;BME280;12935;50.782;6.074;2023-03-13T11:23:19;97792.66;;;15.45;100.00
24858;BME280;12935;50.782;6.074;2023-03-13T11:26:18;97799.72;;;16.08;100.00
24858;BME280;12935;50.782;6.074;2023-03-13T11:28:57;97779.69;;;16.23;100.00
24858;BME280;12935;50.782;6.074;2023-03-13T11:31:44;97772.72;;;16.80;100.00
24858;BME280;12935;50.782;6.074;2023-03-13T11:34:20;97772.31;;;16.73;100.00
24858;BME280;12935;50.782;6.074;2023-03-13T11:37:19;97792.31;;;15.76;100.00
24858;BME280;12935;50.782;6.074;2023-03-13T11:56:39;97750.22;;;17.02;100.00
24858;BME280;12935;50.782;6.074;2023-03-13T12:02:13;97736.19;;;17.41;100.00
24858;BME280;12935;50.782;6.074;2023-03-13T12:04:50;97730.25;;;17.28;100.00
24858;BME280;12935;50.782;6.074;2023-03-13T12:07:26;97739.53;;;17.45;100.00
24858;BME280;12935;50.782;6.074;2023-03-13T12:10:03;97723.50;;;17.69;100.00
24858;BME280;12935;50.782;6.074;2023-03-13T12:12:39;97729.47;;;17.07;100.00
24858;BME280;12935;50.782;6.074;2023-03-13T12:15:28;97748.84;;;17.68;100.00
24858;BME280;12935;50.782;6.074;2023-03-13T12:18:04;97716.44;;;17.88;100.00
24858;BME280;12935;50.782;6.074;2023-03-13T12:26:09;97697.31;;;17.04;100.00
24858;BME280;12935;50.782;6.074;2023-03-13T12:28:42;97702.56;;;16.67;100.00
24858;BME280;12935;50.782;6.074;2023-03-13T12:31:33;97692.44;;;17.13;100.00
24858;BME280;12935;50.782;6.074;2023-03-13T12:36:53;97710.22;;;17.12;100.00
24858;BME280;12935;50.782;6.074;2023-03-13T12:39:44;97688.03;;;16.37;100.00
24858;BME280;12935;50.782;6.074;2023-03-13T12:42:27;97692.47;;;16.49;100.00
24858;BME280;12935;50.782;6.074;2023-03-13T12:44:57;97681.16;;;16.47;100.00
24858;BME280;12935;50.782;6.074;2023-03-13T12:50:33;97663.88;;;16.32;100.00
24858;BME280;12935;50.782;6.074;2023-03-13T12:58:59;97653.53;;;15.83;100.00
24858;BME280;12935;50.782;6.074;2023-03-13T13:01:36;97666.88;;;15.75;100.00
24858;BME280;12935;50.782;6.074;2023-03-13T13:04:19;97655.91;;;16.04;100.00
24858;BME280;12935;50.782;6.074;2023-03-13T13:09:20;97648.56;;;15.57;100.00
24858;BME280;12935;50.782;6.074;2023-03-13T13:11:47;97658.25;;;15.67;100.00
24858;BME280;12935;50.782;6.074;2023-03-13T13:16:47;97654.19;;;15.39;100.00
24858;BME280;12935;50.782;6.074;2023-03-13T13:24:52;97642.84;;;15.61;100.00
24858;BME280;12935;50.782;6.074;2023-03-13T13:27:44;97626.75;;;15.44;100.00
24858;BME280;12935;50.782;6.074;2023-03-13T13:38:47;97586.09;;;15.63;100.00
24858;BME280;12935;50.782;6.074;2023-03-13T13:43:43;97581.00;;;16.70;100.00
24858;BME280;12935;50.782;6.074;2023-03-13T13:46:32;97553.59;;;17.28;100.00
24858;BME280;12935;50.782;6.074;2023-03-13T13:54:29;97558.63;;;16.13;100.00
24858;BME280;12935;50.782;6.074;2023-03-13T13:57:00;97553.78;;;15.93;100.00
24858;BME280;12935;50.782;6.074;2023-03-13T13:59:34;97548.47;;;15.75;100.00
24858;BME280;12935;50.782;6.074;2023-03-13T14:04:33;97545.06;;;15.80;100.00
24858;BME280;12935;50.782;6.074;2023-03-13T14:07:01;97556.09;;;15.65;100.00
24858;BME280;12935;50.782;6.074;2023-03-13T14:10:01;97536.72;;;15.60;100.00
24858;BME280;12935;50.782;6.074;2023-03-13T14:12:32;97537.47;;;15.60;100.00
24858;BME280;12935;50.782;6.074;2023-03-13T14:15:12;97544.31;;;15.65;100.00
24858;BME280;12935;50.782;6.074;2023-03-13T14:17:44;97532.88;;;15.42;100.00
24858;BME280;12935;50.782;6.074;2023-03-13T14:22:54;97522.16;;;15.44;100.00
24858;BME280;12935;50.782;6.074;2023-03-13T14:25:22;97531.28;;;15.51;100.00
24858;BME280;12935;50.782;6.074;2023-03-13T14:27:48;97536.00;;;15.21;100.00